Terminal Aerodrome Forecast
Issued by NWS

Home | Current Version | Previous Version | Text Only | Print | Product List | Glossary On
Versions: 1 2 3 4 5 6 7 8 9 10 11 12 13
000
FTUS45 KTFX 271700
TAFBZN
TAF
KBZN 271728Z 2718/2818 27010KT P6SM SCT120
     FM280300 15005KT P6SM SCT120
     FM281400 24011KT P6SM SCT100 BKN150=

USA.gov is the U.S. government's official web portal to all federal, state and local government web resources and services.